createdAt,value
2022-08-27T00:01:56.740Z,22.60
2022-08-27T00:04:24.044Z,22.50
2022-08-27T00:06:51.330Z,22.50
2022-08-27T00:09:23.776Z,22.50
2022-08-27T00:11:54.671Z,22.50
2022-08-27T00:14:22.741Z,22.40
2022-08-27T00:16:50.558Z,22.40
2022-08-27T00:19:21.878Z,22.40
2022-08-27T00:21:49.235Z,22.30
2022-08-27T00:24:16.489Z,22.30
2022-08-27T00:26:44.584Z,22.30
2022-08-27T00:29:12.276Z,22.20
2022-08-27T00:31:39.819Z,22.30
2022-08-27T00:34:07.522Z,22.20
2022-08-27T00:36:35.525Z,22.20
2022-08-27T00:39:03.019Z,22.20
2022-08-27T00:41:34.059Z,22.10
2022-08-27T00:44:02.290Z,22.10
2022-08-27T00:46:39.218Z,22.10
2022-08-27T00:49:18.263Z,22.00
2022-08-27T00:51:53.188Z,22.00
2022-08-27T00:54:26.382Z,21.90
2022-08-27T00:56:59.676Z,21.90
2022-08-27T00:59:31.174Z,21.80
2022-08-27T01:02:19.057Z,21.80
2022-08-27T01:05:03.043Z,21.80
2022-08-27T01:07:37.809Z,21.70
2022-08-27T01:10:10.445Z,21.70
2022-08-27T01:12:41.289Z,21.70
2022-08-27T01:15:19.378Z,21.60
2022-08-27T01:17:48.809Z,21.60
2022-08-27T01:20:29.553Z,21.60
2022-08-27T01:23:38.591Z,21.60
2022-08-27T01:26:08.613Z,21.50
2022-08-27T01:28:37.925Z,21.50
2022-08-27T01:31:11.964Z,21.50
2022-08-27T01:33:40.091Z,21.50
2022-08-27T01:36:08.246Z,21.50
2022-08-27T01:38:35.423Z,21.40
2022-08-27T01:41:03.792Z,21.40
2022-08-27T01:43:31.800Z,21.40
2022-08-27T01:45:59.262Z,21.40
2022-08-27T01:48:29.980Z,21.30
2022-08-27T01:50:57.349Z,21.30
2022-08-27T01:53:27.305Z,21.30
2022-08-27T01:55:56.896Z,21.30
2022-08-27T01:58:30.467Z,21.30
2022-08-27T02:01:05.290Z,21.30
2022-08-27T02:03:36.971Z,21.30
2022-08-27T02:06:09.288Z,21.20
2022-08-27T02:08:37.159Z,21.20
2022-08-27T02:11:05.319Z,21.20
2022-08-27T02:13:36.055Z,21.20
2022-08-27T02:16:04.184Z,21.20
2022-08-27T02:18:31.633Z,21.20
2022-08-27T02:20:58.797Z,21.10
2022-08-27T02:23:26.880Z,21.20
2022-08-27T02:25:54.129Z,21.10
2022-08-27T02:28:21.788Z,21.10
2022-08-27T02:30:49.039Z,21.10
2022-08-27T02:33:16.756Z,21.10
2022-08-27T02:35:44.374Z,21.10
2022-08-27T02:38:13.378Z,21.00
2022-08-27T02:40:41.148Z,21.00
2022-08-27T02:43:08.971Z,21.00
2022-08-27T02:45:37.516Z,21.00
2022-08-27T02:48:06.301Z,20.90
2022-08-27T02:50:33.923Z,20.90
2022-08-27T02:53:05.427Z,20.90
2022-08-27T02:55:33.677Z,20.90
2022-08-27T02:58:01.451Z,21.00
2022-08-27T03:00:29.510Z,20.90
2022-08-27T03:03:01.292Z,20.90
2022-08-27T03:05:28.806Z,20.90
2022-08-27T03:07:57.278Z,20.90
2022-08-27T03:10:24.441Z,20.80
2022-08-27T03:12:51.815Z,20.80
2022-08-27T03:15:20.073Z,20.80
2022-08-27T03:18:06.541Z,20.80
2022-08-27T03:20:37.604Z,20.80
2022-08-27T03:23:04.754Z,20.80
2022-08-27T03:25:33.201Z,20.70
2022-08-27T03:28:01.783Z,20.70
2022-08-27T03:30:30.008Z,20.70
2022-08-27T03:33:00.589Z,20.70
2022-08-27T03:35:31.443Z,20.70
2022-08-27T03:38:02.874Z,20.70
2022-08-27T03:40:30.139Z,20.70
2022-08-27T03:43:00.873Z,20.60
2022-08-27T03:45:31.557Z,20.60
2022-08-27T03:48:19.351Z,20.60
2022-08-27T03:50:49.993Z,20.60
2022-08-27T03:53:20.533Z,20.50
2022-08-27T03:55:48.228Z,20.50
2022-08-27T03:58:16.959Z,20.40
2022-08-27T04:00:44.222Z,20.50
2022-08-27T04:03:14.404Z,20.50
2022-08-27T04:05:45.342Z,20.40
2022-08-27T04:08:13.573Z,20.40
2022-08-27T04:10:44.268Z,20.40
2022-08-27T04:13:15.469Z,20.40
2022-08-27T04:15:49.858Z,20.40
2022-08-27T04:18:18.073Z,20.30
2022-08-27T04:20:47.977Z,20.40
2022-08-27T04:23:15.242Z,20.30
2022-08-27T04:25:43.782Z,20.30
2022-08-27T04:28:12.718Z,20.30
2022-08-27T04:30:46.222Z,20.30
2022-08-27T04:33:14.082Z,20.30
2022-08-27T04:35:41.966Z,20.30
2022-08-27T04:38:09.536Z,20.30
2022-08-27T04:40:57.019Z,20.30
2022-08-27T04:43:24.228Z,20.20
2022-08-27T04:45:51.411Z,20.30
2022-08-27T04:48:19.679Z,20.20
2022-08-27T04:50:50.451Z,20.20
2022-08-27T04:53:18.158Z,20.30
2022-08-27T04:55:54.105Z,20.30
2022-08-27T04:58:23.936Z,20.20
2022-08-27T05:00:59.318Z,20.20
2022-08-27T05:03:26.486Z,20.30
2022-08-27T05:06:05.913Z,20.20
2022-08-27T05:08:34.156Z,20.20
2022-08-27T05:11:02.179Z,20.20
2022-08-27T05:13:29.728Z,20.20
2022-08-27T05:16:07.445Z,20.20
2022-08-27T05:18:41.773Z,20.20
2022-08-27T05:21:26.370Z,20.30
2022-08-27T05:23:55.588Z,20.20
2022-08-27T05:26:23.469Z,20.30
2022-08-27T05:28:50.892Z,20.30
2022-08-27T05:31:22.641Z,20.30
2022-08-27T05:33:50.367Z,20.30
2022-08-27T05:36:20.671Z,20.30
2022-08-27T05:38:49.535Z,20.30
2022-08-27T05:41:22.219Z,20.30
2022-08-27T05:43:50.718Z,20.40
2022-08-27T05:46:21.155Z,20.40
2022-08-27T05:48:50.191Z,20.40
2022-08-27T05:51:22.541Z,20.50
2022-08-27T05:54:14.883Z,20.50
2022-08-27T05:56:43.297Z,20.60
2022-08-27T05:59:29.194Z,20.60
2022-08-27T06:01:57.048Z,20.70
2022-08-27T06:04:27.377Z,20.80
2022-08-27T06:06:54.747Z,20.90
2022-08-27T06:09:26.230Z,20.90
2022-08-27T06:11:58.655Z,20.90
2022-08-27T06:14:27.758Z,21.00
2022-08-27T06:16:55.676Z,21.00
2022-08-27T06:19:23.939Z,21.00
2022-08-27T06:22:01.037Z,21.10
2022-08-27T06:24:40.309Z,21.10
2022-08-27T06:27:16.310Z,21.10
2022-08-27T06:29:46.891Z,21.20
2022-08-27T06:32:15.449Z,21.20
2022-08-27T06:34:42.635Z,21.30
2022-08-27T06:37:10.055Z,21.40
2022-08-27T06:39:39.785Z,21.40
2022-08-27T06:42:12.372Z,21.50
2022-08-27T06:44:40.499Z,21.60
2022-08-27T06:47:08.105Z,21.70
2022-08-27T06:49:41.130Z,21.70
2022-08-27T06:52:08.400Z,21.80
2022-08-27T06:54:37.349Z,21.90
2022-08-27T06:57:04.674Z,21.90
2022-08-27T06:59:31.822Z,21.90
2022-08-27T07:01:59.343Z,22.00
2022-08-27T07:04:32.198Z,22.00
2022-08-27T07:07:04.047Z,22.00
2022-08-27T07:09:34.774Z,22.10
2022-08-27T07:12:05.849Z,22.10
2022-08-27T07:14:37.802Z,22.20
2022-08-27T07:17:09.777Z,22.20
2022-08-27T07:19:40.857Z,22.30
2022-08-27T07:22:08.973Z,22.40
2022-08-27T07:24:36.346Z,22.40
2022-08-27T07:27:03.556Z,22.50
2022-08-27T07:29:33.550Z,22.60
2022-08-27T07:32:00.686Z,22.60
2022-08-27T07:34:31.051Z,22.70
2022-08-27T07:36:58.181Z,22.80
2022-08-27T07:39:25.334Z,22.90
2022-08-27T07:42:17.385Z,23.00
2022-08-27T07:44:44.791Z,23.00
2022-08-27T07:47:12.388Z,23.10
2022-08-27T07:49:40.431Z,23.20
2022-08-27T07:52:07.613Z,23.30
2022-08-27T07:54:34.948Z,23.40
2022-08-27T07:57:02.230Z,23.40
2022-08-27T07:59:29.560Z,23.50
2022-08-27T08:01:57.475Z,23.50
2022-08-27T08:04:26.763Z,23.60
2022-08-27T08:07:00.133Z,23.60
2022-08-27T08:09:32.331Z,23.80
2022-08-27T08:11:59.512Z,23.80
2022-08-27T08:14:26.858Z,23.90
2022-08-27T08:16:54.081Z,24.00
2022-08-27T08:19:21.487Z,24.10
2022-08-27T08:21:48.995Z,24.20
2022-08-27T08:24:17.188Z,24.30
2022-08-27T08:26:50.846Z,24.40
2022-08-27T08:29:18.575Z,24.40
2022-08-27T08:31:50.305Z,24.50
2022-08-27T08:34:19.940Z,24.50
2022-08-27T08:36:53.928Z,24.70
2022-08-27T08:39:22.213Z,24.70
2022-08-27T08:41:56.429Z,24.80
2022-08-27T08:44:36.850Z,24.80
2022-08-27T08:47:10.550Z,24.90
2022-08-27T08:50:19.598Z,24.90
2022-08-27T08:53:03.764Z,25.00
2022-08-27T08:55:58.669Z,25.10
2022-08-27T08:58:52.917Z,25.20
2022-08-27T09:01:24.815Z,25.30
2022-08-27T09:04:07.259Z,25.40
2022-08-27T09:06:51.410Z,25.50
2022-08-27T09:09:46.609Z,25.50
2022-08-27T09:12:22.536Z,25.60
2022-08-27T09:14:57.336Z,25.70
2022-08-27T09:17:25.620Z,25.70
2022-08-27T09:19:53.366Z,25.80
2022-08-27T09:23:14.076Z,25.80
2022-08-27T09:25:43.425Z,26.00
2022-08-27T09:28:40.753Z,26.10
2022-08-27T09:31:20.678Z,26.20
2022-08-27T09:33:56.476Z,26.20
2022-08-27T09:36:25.322Z,26.30
2022-08-27T09:39:04.711Z,26.40
2022-08-27T09:41:42.322Z,26.50
2022-08-27T09:44:17.854Z,26.60
2022-08-27T09:47:00.345Z,26.60
2022-08-27T09:49:27.837Z,26.70
2022-08-27T09:51:56.700Z,26.80
2022-08-27T09:54:45.357Z,26.90
2022-08-27T09:57:26.202Z,26.90
2022-08-27T09:59:58.444Z,27.00
2022-08-27T10:02:27.071Z,27.00
2022-08-27T10:05:01.877Z,27.00
2022-08-27T10:07:57.046Z,27.10
2022-08-27T10:11:02.861Z,27.20
2022-08-27T10:13:37.686Z,27.30
2022-08-27T10:16:47.636Z,27.30
2022-08-27T10:19:37.638Z,27.40
2022-08-27T10:22:58.452Z,27.50
2022-08-27T10:25:47.150Z,27.40
2022-08-27T10:28:44.219Z,27.50
2022-08-27T10:31:55.196Z,27.50
2022-08-27T10:34:40.109Z,27.50
2022-08-27T10:37:20.945Z,27.60
2022-08-27T10:40:22.512Z,27.50
2022-08-27T10:43:27.535Z,27.60
2022-08-27T10:46:28.910Z,27.80
2022-08-27T10:49:09.805Z,27.80
2022-08-27T10:52:22.856Z,27.90
2022-08-27T10:55:27.654Z,27.90
2022-08-27T10:58:29.148Z,27.90
2022-08-27T11:01:36.039Z,28.00
2022-08-27T11:04:12.735Z,28.10
2022-08-27T11:06:52.618Z,28.30
2022-08-27T11:09:41.457Z,28.30
2022-08-27T11:12:17.429Z,28.40
2022-08-27T11:15:13.003Z,28.40
2022-08-27T11:18:05.800Z,28.50
2022-08-27T11:20:45.529Z,28.60
2022-08-27T11:23:22.102Z,28.60
2022-08-27T11:26:04.146Z,28.70
2022-08-27T11:28:51.530Z,28.70
2022-08-27T11:31:51.059Z,28.70
2022-08-27T11:34:46.530Z,28.80
2022-08-27T11:37:27.046Z,28.90
2022-08-27T11:40:49.453Z,29.00
2022-08-27T11:43:25.476Z,29.00
2022-08-27T11:46:03.376Z,29.10
2022-08-27T11:48:38.951Z,29.20
2022-08-27T11:51:40.157Z,29.30
2022-08-27T11:54:31.979Z,29.30
2022-08-27T11:56:59.247Z,29.50
2022-08-27T11:59:26.580Z,29.50
2022-08-27T12:02:36.876Z,29.50
2022-08-27T12:05:32.650Z,29.40
2022-08-27T12:08:11.263Z,29.40
2022-08-27T12:11:24.769Z,29.50
2022-08-27T12:14:08.669Z,29.50
2022-08-27T12:17:12.085Z,29.60
2022-08-27T12:20:06.618Z,29.70
2022-08-27T12:23:16.973Z,29.80
2022-08-27T12:26:15.583Z,29.90
2022-08-27T12:28:42.680Z,29.90
2022-08-27T12:31:10.268Z,29.90
2022-08-27T12:33:48.413Z,30.00
2022-08-27T12:36:28.285Z,30.10
2022-08-27T12:38:59.381Z,30.30
2022-08-27T12:41:43.789Z,30.40
2022-08-27T12:44:24.655Z,30.40
2022-08-27T12:47:07.887Z,30.50
2022-08-27T12:49:55.781Z,30.60
2022-08-27T12:53:09.933Z,30.70
2022-08-27T12:56:25.845Z,30.80
2022-08-27T12:58:58.285Z,30.80
2022-08-27T13:01:45.660Z,30.90
2022-08-27T13:04:25.814Z,30.80
2022-08-27T13:06:53.098Z,30.60
2022-08-27T13:09:35.146Z,30.60
2022-08-27T13:12:17.565Z,30.50
2022-08-27T13:14:48.958Z,30.40
2022-08-27T13:17:24.411Z,30.30
2022-08-27T13:20:01.116Z,30.40
2022-08-27T13:22:38.833Z,30.30
2022-08-27T13:25:25.148Z,30.40
2022-08-27T13:28:12.782Z,30.60
2022-08-27T13:30:46.696Z,30.90
2022-08-27T13:33:22.082Z,31.20
2022-08-27T13:35:49.532Z,31.40
2022-08-27T13:38:22.434Z,31.40
2022-08-27T13:41:21.337Z,31.50
2022-08-27T13:43:49.178Z,31.50
2022-08-27T13:46:25.493Z,31.50
2022-08-27T13:48:56.352Z,31.60
2022-08-27T13:51:36.253Z,31.70
2022-08-27T13:54:14.535Z,31.60
2022-08-27T13:56:47.949Z,31.60
2022-08-27T13:59:19.229Z,31.50
2022-08-27T14:01:57.836Z,31.30
2022-08-27T14:04:35.492Z,31.10
2022-08-27T14:07:20.992Z,30.90
2022-08-27T14:10:02.289Z,30.90
2022-08-27T14:12:38.419Z,30.70
2022-08-27T14:15:37.089Z,30.60
2022-08-27T14:18:20.602Z,30.30
2022-08-27T14:20:51.609Z,30.10
2022-08-27T14:23:18.864Z,29.90
2022-08-27T14:25:48.151Z,29.70
2022-08-27T14:28:15.528Z,29.60
2022-08-27T14:30:42.717Z,29.40
2022-08-27T14:33:11.408Z,29.30
2022-08-27T14:35:40.441Z,29.20
2022-08-27T14:38:21.229Z,29.10
2022-08-27T14:40:52.907Z,29.20
2022-08-27T14:43:20.695Z,29.30
2022-08-27T14:45:51.555Z,29.40
2022-08-27T14:48:28.820Z,29.60
2022-08-27T14:51:09.667Z,29.70
2022-08-27T14:53:37.226Z,29.80
2022-08-27T14:56:04.985Z,29.90
2022-08-27T14:58:32.568Z,30.00
2022-08-27T15:01:00.476Z,30.10
2022-08-27T15:03:28.370Z,30.00
2022-08-27T15:05:56.565Z,29.90
2022-08-27T15:08:29.207Z,29.80
2022-08-27T15:11:03.685Z,29.70
2022-08-27T15:13:34.640Z,29.60
2022-08-27T15:16:06.685Z,29.60
2022-08-27T15:18:33.968Z,29.60
2022-08-27T15:21:01.703Z,29.60
2022-08-27T15:23:28.841Z,29.60
2022-08-27T15:25:59.497Z,29.60
2022-08-27T15:28:26.758Z,29.60
2022-08-27T15:30:54.309Z,29.60
2022-08-27T15:33:25.243Z,29.50
2022-08-27T15:35:52.455Z,29.30
2022-08-27T15:38:19.590Z,29.20
2022-08-27T15:40:46.812Z,29.10
2022-08-27T15:43:17.758Z,29.00
2022-08-27T15:45:45.337Z,28.90
2022-08-27T15:48:16.065Z,28.80
2022-08-27T15:50:43.696Z,28.80
2022-08-27T15:53:14.961Z,28.70
2022-08-27T15:55:44.452Z,28.60
2022-08-27T15:58:12.554Z,28.50
2022-08-27T16:00:41.773Z,28.40
2022-08-27T16:03:13.164Z,28.30
2022-08-27T16:05:43.714Z,28.20
2022-08-27T16:08:14.797Z,28.10
2022-08-27T16:10:45.396Z,28.10
2022-08-27T16:13:12.952Z,28.00
2022-08-27T16:15:41.758Z,27.90
2022-08-27T16:18:10.629Z,27.80
2022-08-27T16:20:38.009Z,27.80
2022-08-27T16:23:05.158Z,27.70
2022-08-27T16:25:32.780Z,27.60
2022-08-27T16:28:01.631Z,27.60
2022-08-27T16:30:28.933Z,27.50
2022-08-27T16:32:59.293Z,27.40
2022-08-27T16:35:26.495Z,27.30
2022-08-27T16:37:57.361Z,27.20
2022-08-27T16:40:24.733Z,27.20
2022-08-27T16:42:52.881Z,27.10
2022-08-27T16:45:23.099Z,27.00
2022-08-27T16:48:12.864Z,27.00
2022-08-27T16:50:41.359Z,26.90
2022-08-27T16:53:15.516Z,26.80
2022-08-27T16:55:46.065Z,26.80
2022-08-27T16:58:29.367Z,26.70
2022-08-27T17:01:05.214Z,26.70
2022-08-27T17:04:08.049Z,26.60
2022-08-27T17:06:40.086Z,26.60
2022-08-27T17:09:07.876Z,26.50
2022-08-27T17:11:40.435Z,26.40
2022-08-27T17:14:12.315Z,26.40
2022-08-27T17:16:41.737Z,26.40
2022-08-27T17:19:16.699Z,26.30
2022-08-27T17:21:45.427Z,26.30
2022-08-27T17:24:13.477Z,26.20
2022-08-27T17:26:41.011Z,26.20
2022-08-27T17:29:08.335Z,26.10
2022-08-27T17:31:40.601Z,26.00
2022-08-27T17:34:20.254Z,26.00
2022-08-27T17:36:48.113Z,26.00
2022-08-27T17:39:15.908Z,25.90
2022-08-27T17:41:47.056Z,25.90
2022-08-27T17:44:22.667Z,25.80
2022-08-27T17:46:51.992Z,25.80
2022-08-27T17:49:19.387Z,25.70
2022-08-27T17:51:48.662Z,25.60
2022-08-27T17:54:43.130Z,25.60
2022-08-27T17:57:25.303Z,25.50
2022-08-27T17:59:54.277Z,25.50
2022-08-27T18:02:44.456Z,25.40
2022-08-27T18:05:14.561Z,25.30
2022-08-27T18:07:45.400Z,25.30
2022-08-27T18:10:19.267Z,25.30
2022-08-27T18:12:46.781Z,25.20
2022-08-27T18:15:29.131Z,25.20
2022-08-27T18:17:57.965Z,25.20
2022-08-27T18:20:30.425Z,25.10
2022-08-27T18:23:00.958Z,25.10
2022-08-27T18:25:35.921Z,25.00
2022-08-27T18:28:10.270Z,25.00
2022-08-27T18:30:39.775Z,25.00
2022-08-27T18:33:08.055Z,25.00
2022-08-27T18:35:36.124Z,24.90
2022-08-27T18:38:04.382Z,24.90
2022-08-27T18:40:41.692Z,24.90
2022-08-27T18:43:08.981Z,24.80
2022-08-27T18:45:37.727Z,24.70
2022-08-27T18:48:19.031Z,24.70
2022-08-27T18:50:50.543Z,24.70
2022-08-27T18:53:20.412Z,24.60
2022-08-27T18:55:49.314Z,24.60
2022-08-27T18:58:20.617Z,24.60
2022-08-27T19:00:52.756Z,24.50
2022-08-27T19:03:33.674Z,24.50
2022-08-27T19:06:01.229Z,24.40
2022-08-27T19:08:35.842Z,24.40
2022-08-27T19:11:06.094Z,24.40
2022-08-27T19:13:33.819Z,24.30
2022-08-27T19:16:14.116Z,24.30
2022-08-27T19:18:41.984Z,24.20
2022-08-27T19:21:09.426Z,24.20
2022-08-27T19:23:37.853Z,24.20
2022-08-27T19:26:06.175Z,24.10
2022-08-27T19:28:42.120Z,24.10
2022-08-27T19:31:09.751Z,24.10
2022-08-27T19:33:37.070Z,24.00
2022-08-27T19:36:07.438Z,24.00
2022-08-27T19:38:39.221Z,24.00
2022-08-27T19:41:06.552Z,24.00
2022-08-27T19:43:33.733Z,24.00
2022-08-27T19:46:04.903Z,23.90
2022-08-27T19:48:35.203Z,23.90
2022-08-27T19:51:03.313Z,23.90
2022-08-27T19:53:30.731Z,23.90
2022-08-27T19:55:57.904Z,23.90
2022-08-27T19:58:25.204Z,23.80
2022-08-27T20:00:56.173Z,23.80
2022-08-27T20:03:23.337Z,23.80
2022-08-27T20:05:52.644Z,23.80
2022-08-27T20:08:22.657Z,23.80
2022-08-27T20:10:49.746Z,23.80
2022-08-27T20:13:16.893Z,23.80
2022-08-27T20:15:44.209Z,23.80
2022-08-27T20:18:14.056Z,23.70
2022-08-27T20:20:42.204Z,23.80
2022-08-27T20:23:09.706Z,23.80
2022-08-27T20:25:37.670Z,23.80
2022-08-27T20:28:28.274Z,23.80
2022-08-27T20:30:54.054Z,23.80
2022-08-27T20:33:21.125Z,23.90
2022-08-27T20:35:48.310Z,23.90
2022-08-27T20:38:20.492Z,23.90
2022-08-27T20:40:53.803Z,24.00
2022-08-27T20:43:20.955Z,24.00
2022-08-27T20:45:48.295Z,24.00
2022-08-27T20:48:19.017Z,23.90
2022-08-27T20:50:46.480Z,23.80
2022-08-27T20:53:17.018Z,23.70
2022-08-27T20:55:44.756Z,23.50
2022-08-27T21:00:58.567Z,23.20
2022-08-27T21:03:26.144Z,23.10
2022-08-27T21:05:53.431Z,22.90
2022-08-27T21:08:21.901Z,22.80
2022-08-27T21:10:57.508Z,22.80
2022-08-27T21:13:28.584Z,22.70
2022-08-27T21:15:56.421Z,22.60
2022-08-27T21:18:29.523Z,22.50
2022-08-27T21:21:02.762Z,22.40
2022-08-27T21:23:31.148Z,22.40
2022-08-27T21:26:10.100Z,22.30
2022-08-27T21:28:43.483Z,22.30
2022-08-27T21:31:10.810Z,22.30
2022-08-27T21:33:39.409Z,22.20
2022-08-27T21:36:11.808Z,22.20
2022-08-27T21:38:40.238Z,22.20
2022-08-27T21:41:11.132Z,22.20
2022-08-27T21:43:38.226Z,22.10
2022-08-27T21:46:06.453Z,22.10
2022-08-27T21:48:33.790Z,22.10
2022-08-27T21:51:13.797Z,22.00
2022-08-27T21:53:41.932Z,22.00
2022-08-27T21:56:11.152Z,21.90
2022-08-27T21:58:38.721Z,22.00
2022-08-27T22:01:09.295Z,21.90
2022-08-27T22:03:37.034Z,21.90
2022-08-27T22:06:11.305Z,21.90
2022-08-27T22:08:42.528Z,21.80
2022-08-27T22:11:11.672Z,21.80
2022-08-27T22:13:39.556Z,21.80
2022-08-27T22:16:07.621Z,21.80
2022-08-27T22:18:34.752Z,21.70
2022-08-27T22:21:04.923Z,21.70
2022-08-27T22:23:32.278Z,21.70
2022-08-27T22:26:04.364Z,21.70
2022-08-27T22:28:31.650Z,21.60
2022-08-27T22:30:58.842Z,21.60
2022-08-27T22:33:25.966Z,21.60
2022-08-27T22:35:54.282Z,21.60
2022-08-27T22:38:21.480Z,21.70
2022-08-27T22:40:50.218Z,21.60
2022-08-27T22:43:17.468Z,21.60
2022-08-27T22:45:44.591Z,21.60
2022-08-27T22:48:12.466Z,21.60
2022-08-27T22:50:40.230Z,21.50
2022-08-27T22:53:07.955Z,21.50
2022-08-27T22:55:38.447Z,21.50
2022-08-27T22:58:09.133Z,21.50
2022-08-27T23:00:39.894Z,21.50
2022-08-27T23:03:10.169Z,21.50
2022-08-27T23:05:41.585Z,21.40
2022-08-27T23:08:14.055Z,21.40
2022-08-27T23:10:43.899Z,21.40
2022-08-27T23:13:12.043Z,21.30
2022-08-27T23:15:39.962Z,21.20
2022-08-27T23:18:08.291Z,21.20
2022-08-27T23:20:36.072Z,21.20
2022-08-27T23:23:03.804Z,21.20
2022-08-27T23:25:49.898Z,21.20
2022-08-27T23:28:17.715Z,21.20
2022-08-27T23:30:48.072Z,21.10
2022-08-27T23:33:15.755Z,21.20
2022-08-27T23:35:47.982Z,21.20
2022-08-27T23:38:21.356Z,21.20
2022-08-27T23:40:52.392Z,21.10
2022-08-27T23:43:22.824Z,21.20
2022-08-27T23:45:50.741Z,21.20
2022-08-27T23:48:19.070Z,21.20
2022-08-27T23:50:49.391Z,21.10
2022-08-27T23:53:16.538Z,21.10
2022-08-27T23:55:43.891Z,21.10
2022-08-27T23:58:11.300Z,21.10
